Current | Forecast
Updated: 3:00 PM JST on August 23, 2017
Observed at Matsumoto Airport, Japan
Temperature 84°F
Humidity 55%
Dew Point 66°F
Wind NNW at 5 mph
Pressure 29.92 in (Falling)
Conditions Scattered Clouds
Visibility 6.2 miles
UV 4 out of 16
Clouds (FEW) : 2000 ft
Scattered Clouds (SCT) : 14000 ft
Yesterday's Maximum 88°F
Yesterday's Minimum 77°F approx.
Yesterday's Cooling Degree Days 17 approx.
Sunrise5:12 AM JST
Sunset6:28 PM JST
Moon Rise6:25 AM JST
Moon Set7:29 PM JST
Moon PhaseMoon Phase
Waxing Crescent
Raw METARMETAR RJAF 230600Z 33004KT 280V360 9999 FEW020 SCT140 BKN/// 29/19 Q1013


Monday
. High: 80° F.
Tuesday
. High: 71° F.
Wednesday
. High: 73° F.
Thursday
. High: 77° F.
Friday
. High: 77° F.
Saturday
. High: 71° F.
Sunday
. High: 75° F.
Monday
. High: 77° F.

Units: English | Metric

Find the Weather for any City, State or Zipcode, or Country:

U.S. State List | Severe Weather | Tropical Storms | Ski Conditions
United States | Canada | Central America | South America | Asia | Europe | Australia | Africa | Islands

Weather Underground

© Copyright 2017
The Weather Company, LLC